Time;durP1;ratioP1;P1;durP2;ratioP2;P2;SDS_P1;SDS_P2;PMS_P1;PMS_P2;Temp;Humidity;BMP_temperature;BMP_pressure;BME280_temperature;BME280_humidity;BME280_pressure;Samples;Min_cycle;Max_cycle;Signal;HPM_P1;HPM_P2
2022/09/10 00:00:59;;;;;;;6.70;1.27;;;;;;;15.46;82.87;100287.72;5074430;28;20094;-77
2022/09/10 00:04:09;;;;;;;5.20;1.10;;;;;;;15.42;83.26;100290.72;5074392;28;20525;-77
2022/09/10 00:07:12;;;;;;;9.77;1.25;;;;;;;15.32;83.72;100286.16;5073729;28;20399;-77
2022/09/10 00:10:17;;;;;;;10.43;1.42;;;;;;;15.38;83.00;100287.50;5073876;28;20165;-77
2022/09/10 00:13:21;;;;;;;8.07;1.33;;;;;;;15.41;82.87;100281.97;5073839;28;20073;-78
2022/09/10 00:16:26;;;;;;;4.22;1.13;;;;;;;15.31;83.41;100288.88;5074116;28;20043;-78
2022/09/10 00:19:30;;;;;;;9.77;1.08;;;;;;;15.32;83.62;100285.31;5074106;28;20055;-78
2022/09/10 00:22:33;;;;;;;6.75;1.33;;;;;;;15.31;83.59;100280.97;5073977;28;20457;-78
2022/09/10 00:25:37;;;;;;;5.60;0.95;;;;;;;15.23;83.50;100283.38;5073720;28;20043;-78
2022/09/10 00:28:42;;;;;;;6.38;0.82;;;;;;;15.33;82.76;100276.44;5073838;28;20094;-78
2022/09/10 00:31:45;;;;;;;7.00;1.63;;;;;;;15.39;82.63;100281.25;5073638;28;20094;-78
2022/09/10 00:34:48;;;;;;;6.45;1.27;;;;;;;15.16;83.29;100280.38;5073536;28;20058;-78
2022/09/10 00:37:52;;;;;;;5.70;0.75;;;;;;;15.08;83.46;100275.66;5073569;28;20115;-78
2022/09/10 00:41:02;;;;;;;11.30;0.98;;;;;;;14.83;85.32;100273.16;5073497;28;20378;-78
2022/09/10 00:44:40;;;;;;;6.72;0.90;;;;;;;14.87;85.55;100269.38;5073644;28;20040;-78
2022/09/10 00:47:46;;;;;;;3.08;0.82;;;;;;;14.77;86.24;100274.50;5073756;28;20048;-78
2022/09/10 00:50:50;;;;;;;7.20;0.93;;;;;;;14.77;86.47;100268.34;5095969;28;20047;-78
2022/09/10 00:53:54;;;;;;;3.05;0.60;;;;;;;14.93;85.56;100270.69;5072359;28;20071;-78
2022/09/10 00:57:02;;;;;;;6.22;0.73;;;;;;;15.14;84.18;100270.91;5073224;28;20399;-78
2022/09/10 01:00:09;;;;;;;7.40;1.10;;;;;;;15.02;84.02;100272.66;5072600;28;20063;-77
2022/09/10 01:03:15;;;;;;;2.58;0.63;;;;;;;15.26;82.99;100275.25;5073251;28;20113;-77
2022/09/10 01:06:19;;;;;;;5.25;0.73;;;;;;;15.07;83.58;100278.41;5072445;28;20035;-77
2022/09/10 01:09:23;;;;;;;8.93;1.15;;;;;;;15.17;83.39;100279.41;5073042;28;20097;-77
2022/09/10 01:12:41;;;;;;;5.55;0.60;;;;;;;15.07;83.86;100276.63;5072295;28;20406;-78
2022/09/10 01:15:58;;;;;;;5.47;0.93;;;;;;;15.07;84.05;100283.69;5072659;28;20448;-78
2022/09/10 01:19:25;;;;;;;4.40;0.70;;;;;;;15.14;84.07;100278.78;5072252;28;20051;-78
2022/09/10 01:22:56;;;;;;;3.85;1.00;;;;;;;15.16;83.98;100279.53;5072212;28;20126;-78
2022/09/10 01:26:05;;;;;;;6.00;0.88;;;;;;;15.08;84.42;100267.75;5073133;28;20043;-78
2022/09/10 01:29:13;;;;;;;5.95;0.93;;;;;;;15.02;84.61;100273.47;5071878;28;20502;-79
2022/09/10 01:32:25;;;;;;;8.70;0.85;;;;;;;15.03;84.63;100276.97;5071958;28;20490;-79
2022/09/10 01:35:52;;;;;;;13.13;1.23;;;;;;;14.94;84.77;100273.22;5071887;28;20044;-79
2022/09/10 01:38:56;;;;;;;7.45;1.00;;;;;;;15.13;83.90;100275.31;5071685;28;20274;-79
2022/09/10 01:42:01;;;;;;;4.35;0.88;;;;;;;15.16;83.78;100277.72;5071456;28;20043;-79
2022/09/10 01:45:14;;;;;;;4.97;0.60;;;;;;;15.30;83.07;100276.69;5072114;28;20048;-79
2022/09/10 01:48:43;;;;;;;3.40;0.70;;;;;;;15.30;82.75;100281.94;5071677;28;20048;-79
2022/09/10 01:52:12;;;;;;;8.20;1.42;;;;;;;15.26;83.49;100275.25;5095054;28;20403;-79
2022/09/10 01:55:22;;;;;;;7.78;1.02;;;;;;;15.32;83.46;100269.50;5071675;28;20120;-79
2022/09/10 01:58:36;;;;;;;7.10;1.60;;;;;;;15.33;83.33;100266.75;5071961;28;20569;-79
2022/09/10 02:02:03;;;;;;;4.25;0.80;;;;;;;15.39;83.32;100262.81;5095169;28;20471;-79
2022/09/10 02:05:09;;;;;;;9.55;1.60;;;;;;;15.27;84.13;100255.84;5071552;28;20047;-79
2022/09/10 02:08:29;;;;;;;2.90;1.05;;;;;;;15.35;84.01;100258.75;5071850;28;20056;-79
2022/09/10 02:11:46;;;;;;;6.25;0.90;;;;;;;15.28;84.12;100253.09;5071628;28;20045;-79
2022/09/10 02:14:56;;;;;;;6.93;0.93;;;;;;;15.20;84.68;100252.00;5071774;28;20048;-79
2022/09/10 02:18:20;;;;;;;;;;;;;;;15.13;84.84;100238.47;5072995;28;20135;-79
2022/09/10 02:21:24;;;;;;;9.60;1.38;;;;;;;15.26;84.33;100244.47;5095062;28;20287;-79
2022/09/10 02:24:28;;;;;;;4.13;1.02;;;;;;;15.32;84.25;100237.91;5071340;28;20043;-79
2022/09/10 02:27:32;;;;;;;4.53;1.00;;;;;;;15.27;84.86;100240.03;5098124;28;20513;-78
2022/09/10 02:30:36;;;;;;;5.38;0.93;;;;;;;15.21;85.00;100248.41;5099114;28;20115;-77
2022/09/10 02:33:40;;;;;;;9.10;1.23;;;;;;;15.34;84.75;100236.81;5075283;28;20046;-77
2022/09/10 02:36:43;;;;;;;9.07;1.48;;;;;;;15.35;84.54;100238.50;5075268;28;20551;-77
2022/09/10 02:39:46;;;;;;;4.45;1.20;;;;;;;15.36;84.91;100241.97;5076132;28;20048;-77
2022/09/10 02:42:50;;;;;;;3.33;1.17;;;;;;;15.12;85.84;100247.28;5075767;28;20043;-78
2022/09/10 02:46:00;;;;;;;3.10;0.80;;;;;;;15.27;85.01;100254.03;5075162;28;20039;-78
2022/09/10 02:49:05;;;;;;;4.38;1.10;;;;;;;15.19;85.59;100253.81;5075837;28;20055;-78
2022/09/10 02:52:12;;;;;;;9.70;1.05;;;;;;;15.21;85.31;100258.94;5074928;28;20466;-78
2022/09/10 02:55:17;;;;;;;3.42;0.60;;;;;;;15.21;84.98;100251.88;5074431;28;20051;-78
2022/09/10 02:58:21;;;;;;;6.50;1.00;;;;;;;15.08;85.66;100244.06;5074424;28;20099;-79
2022/09/10 03:01:24;;;;;;;5.50;0.60;;;;;;;15.08;85.89;100244.06;5075264;28;20051;-78
2022/09/10 03:04:35;;;;;;;4.25;1.00;;;;;;;15.26;85.14;100246.28;5074658;28;20164;-78
2022/09/10 03:07:39;;;;;;;5.45;0.65;;;;;;;15.15;85.82;100240.97;5074785;28;20582;-78
2022/09/10 03:10:43;;;;;;;6.35;1.05;;;;;;;15.21;85.17;100241.34;5074584;28;20120;-78
2022/09/10 03:13:49;;;;;;;7.70;1.27;;;;;;;15.20;85.13;100238.84;5075570;28;20040;-79
2022/09/10 03:16:52;;;;;;;3.25;0.90;;;;;;;15.09;85.52;100240.50;5098062;28;20115;-79
2022/09/10 03:19:57;;;;;;;4.70;1.05;;;;;;;15.15;85.45;100244.44;5098037;28;20071;-79
2022/09/10 03:23:02;;;;;;;12.38;0.90;;;;;;;15.05;85.84;100233.75;5075189;28;20048;-79
2022/09/10 03:26:09;;;;;;;4.30;0.77;;;;;;;15.06;85.81;100243.34;5074249;28;20044;-79
2022/09/10 03:29:12;;;;;;;4.63;1.35;;;;;;;15.11;85.19;100232.47;5094382;28;20051;-79
2022/09/10 03:32:17;;;;;;;8.45;0.82;;;;;;;15.33;84.55;100231.66;5067725;28;20089;-79
2022/09/10 03:35:21;;;;;;;3.35;0.70;;;;;;;15.13;85.33;100237.63;5072828;28;20075;-79
2022/09/10 03:38:26;;;;;;;5.63;1.20;;;;;;;15.06;85.86;100232.81;5073586;28;20089;-78
2022/09/10 03:41:30;;;;;;;4.28;1.30;;;;;;;15.20;85.71;100244.09;5070104;28;20042;-78
2022/09/10 03:44:35;;;;;;;3.35;0.77;;;;;;;15.15;85.91;100233.06;5074717;28;20177;-78
2022/09/10 03:47:39;;;;;;;4.72;0.82;;;;;;;15.08;86.31;100236.16;5073245;28;20043;-79
2022/09/10 03:50:44;;;;;;;5.90;0.90;;;;;;;15.27;85.33;100238.22;5073399;28;20133;-78
2022/09/10 03:53:47;;;;;;;5.32;0.90;;;;;;;15.05;86.72;100244.28;5073443;28;20079;-79
2022/09/10 03:56:53;;;;;;;7.68;0.80;;;;;;;15.07;86.81;100245.03;5073670;28;20083;-78
2022/09/10 03:59:57;;;;;;;5.53;0.88;;;;;;;15.13;86.72;100246.38;5074691;28;20118;-78
2022/09/10 04:03:01;;;;;;;5.45;1.20;;;;;;;15.36;85.59;100241.97;5073495;28;20109;-78
2022/09/10 04:06:09;;;;;;;5.13;0.95;;;;;;;15.24;85.88;100248.16;5074622;28;20082;-78
2022/09/10 04:09:13;;;;;;;12.32;1.20;;;;;;;15.16;86.68;100248.75;5072934;28;20051;-78
2022/09/10 04:12:17;;;;;;;2.72;0.80;;;;;;;15.26;86.09;100246.28;5061673;28;20051;-78
2022/09/10 04:15:22;;;;;;;13.88;1.15;;;;;;;15.25;86.11;100247.19;5072566;28;20123;-78
2022/09/10 04:18:28;;;;;;;3.13;0.55;;;;;;;15.39;85.79;100249.63;5073047;28;20403;-78
2022/09/10 04:21:33;;;;;;;8.25;1.40;;;;;;;15.45;85.41;100246.53;5073472;28;20038;-78
2022/09/10 04:24:37;;;;;;;5.90;0.50;;;;;;;15.25;86.05;100249.84;5073325;28;20035;-78
2022/09/10 04:27:42;;;;;;;5.47;0.93;;;;;;;15.24;86.50;100242.91;5073302;28;20050;-78
2022/09/10 04:30:46;;;;;;;5.38;0.73;;;;;;;15.37;86.11;100242.81;5073210;28;20230;-79
2022/09/10 04:33:50;;;;;;;8.73;0.90;;;;;;;15.29;86.20;100240.78;5072536;28;20040;-79
2022/09/10 04:36:57;;;;;;;6.97;0.80;;;;;;;15.36;86.13;100239.34;5072872;28;20087;-78
2022/09/10 04:40:01;;;;;;;4.22;0.88;;;;;;;15.44;85.75;100238.72;5073411;28;20048;-78
2022/09/10 04:43:07;;;;;;;2.17;0.60;;;;;;;15.16;87.27;100247.94;5070647;28;20105;-79
2022/09/10 04:46:16;;;;;;;1.40;0.50;;;;;;;15.24;86.80;100256.91;5072732;28;20043;-79
2022/09/10 04:49:19;;;;;;;5.05;0.90;;;;;;;15.25;86.98;100252.47;5072424;28;20051;-79
2022/09/10 04:52:23;;;;;;;5.75;1.10;;;;;;;15.30;86.97;100258.25;5073508;28;20074;-78
2022/09/10 04:55:30;;;;;;;7.93;1.25;;;;;;;15.19;87.64;100266.09;5072062;28;20141;-79
2022/09/10 04:58:34;;;;;;;5.90;0.60;;;;;;;15.19;87.44;100269.59;5096345;28;20047;-79
2022/09/10 05:01:37;;;;;;;3.35;0.77;;;;;;;15.27;87.54;100261.94;5072305;28;20052;-79
2022/09/10 05:04:40;;;;;;;5.05;0.82;;;;;;;15.37;86.90;100262.06;5072383;28;20067;-79
2022/09/10 05:07:44;;;;;;;4.97;0.70;;;;;;;15.59;86.37;100267.38;5073257;28;20101;-79
2022/09/10 05:10:48;;;;;;;4.63;0.90;;;;;;;15.40;87.01;100253.94;5073126;28;20047;-79
2022/09/10 05:13:53;;;;;;;3.67;0.68;;;;;;;15.40;87.46;100258.38;5095714;28;20044;-78
2022/09/10 05:16:58;;;;;;;2.60;0.55;;;;;;;15.40;87.43;100261.84;5072401;28;20047;-78
2022/09/10 05:20:09;;;;;;;7.43;0.70;;;;;;;15.44;87.15;100263.28;5072036;28;20079;-79
2022/09/10 05:23:19;;;;;;;5.80;1.05;;;;;;;15.43;87.37;100256.34;5095649;28;20122;-78
2022/09/10 05:26:24;;;;;;;7.10;0.88;;;;;;;15.45;88.17;100259.72;5071505;28;20039;-79
2022/09/10 05:29:28;;;;;;;4.05;1.25;;;;;;;15.51;88.16;100259.25;5071872;28;20047;-79
2022/09/10 05:32:31;;;;;;;5.28;1.00;;;;;;;15.41;88.87;100262.69;5071492;28;20118;-79
2022/09/10 05:35:35;;;;;;;9.00;0.95;;;;;;;15.48;88.52;100259.47;5071583;28;20047;-79
2022/09/10 05:38:39;;;;;;;4.22;0.90;;;;;;;15.51;88.58;100259.25;5063808;28;20509;-80
2022/09/10 05:41:46;;;;;;;2.80;0.80;;;;;;;15.50;88.45;100272.50;5070083;28;20089;-80
2022/09/10 05:45:00;;;;;;;4.03;1.65;;;;;;;15.39;88.84;100270.72;5084165;23;20056;-78
2022/09/10 05:55:34;;;;;;;6.35;1.77;;;;;;;15.64;87.63;100258.28;5043777;28;20136;-73
2022/09/10 05:58:39;;;;;;;7.60;1.30;;;;;;;15.52;88.59;100265.34;5033690;28;20088;-78
2022/09/10 06:01:44;;;;;;;3.08;1.02;;;;;;;15.58;88.56;100265.72;5027803;28;20553;-83
2022/09/10 06:04:48;;;;;;;4.50;0.90;;;;;;;15.46;89.61;100269.28;5027566;28;20056;-79
2022/09/10 06:07:52;;;;;;;7.05;1.10;;;;;;;15.39;90.18;100273.34;5051309;28;20048;-78
2022/09/10 06:11:14;;;;;;;6.43;1.10;;;;;;;15.62;89.42;100278.66;5060930;28;20120;-77
2022/09/10 06:14:23;;;;;;;4.20;1.05;;;;;;;15.61;89.65;100276.97;5038846;28;20117;-77
2022/09/10 06:17:26;;;;;;;6.13;1.10;;;;;;;15.67;89.17;100272.09;5038615;28;20043;-76
2022/09/10 06:20:29;;;;;;;6.38;1.02;;;;;;;15.62;89.59;100276.00;5050551;28;20047;-77
2022/09/10 06:23:35;;;;;;;3.90;0.98;;;;;;;15.66;89.63;100272.16;5050374;28;20171;-78
2022/09/10 06:26:38;;;;;;;3.20;0.52;;;;;;;15.86;85.39;100283.81;5050493;28;20083;-77
2022/09/10 06:29:46;;;;;;;2.38;0.77;;;;;;;15.92;87.10;100284.22;5049529;28;20056;-77
2022/09/10 06:32:49;;;;;;;4.18;0.75;;;;;;;15.77;87.75;100290.69;5050481;28;20091;-76
2022/09/10 06:35:54;;;;;;;9.93;1.23;;;;;;;15.77;89.32;100290.69;5050956;28;20410;-75
2022/09/10 06:39:02;;;;;;;5.55;0.77;;;;;;;15.97;86.59;100282.03;5049962;28;20048;-74
2022/09/10 06:42:12;;;;;;;5.20;1.02;;;;;;;16.17;83.98;100283.09;5050189;28;20056;-74
2022/09/10 06:45:39;;;;;;;5.53;0.70;;;;;;;16.13;84.35;100294.03;5051848;28;20558;-74
2022/09/10 06:49:14;;;;;;;5.22;0.90;;;;;;;15.95;84.88;100297.16;5049109;28;20102;-74
2022/09/10 06:52:23;;;;;;;8.70;1.60;;;;;;;15.98;83.95;100299.53;5029334;28;20092;-73
2022/09/10 06:55:35;;;;;;;3.40;0.60;;;;;;;15.76;85.05;100299.53;5028630;28;20040;-75
2022/09/10 06:58:40;;;;;;;1.95;0.77;;;;;;;15.67;84.49;100300.25;5052475;28;20052;-74
2022/09/10 07:01:46;;;;;;;2.63;0.60;;;;;;;15.78;84.93;100300.25;5044554;28;20405;-72
2022/09/10 07:04:50;;;;;;;2.45;0.60;;;;;;;15.90;85.35;100307.22;5048769;28;20040;-73
2022/09/10 07:07:54;;;;;;;5.30;0.40;;;;;;;15.87;85.59;100307.44;5050262;28;20093;-73
2022/09/10 07:11:02;;;;;;;5.53;0.80;;;;;;;15.98;84.54;100302.16;5051300;28;20098;-75
2022/09/10 07:14:11;;;;;;;4.22;1.20;;;;;;;16.15;84.14;100307.94;5050586;28;20040;-77
2022/09/10 07:17:15;;;;;;;2.50;0.45;;;;;;;16.21;87.96;100304.81;5049169;28;20047;-76
2022/09/10 07:20:22;;;;;;;2.35;0.55;;;;;;;16.34;87.29;100309.97;5048893;28;20106;-75
2022/09/10 07:23:25;;;;;;;7.90;0.73;;;;;;;16.43;86.00;100304.78;5041798;28;20063;-77
2022/09/10 07:26:30;;;;;;;5.60;0.45;;;;;;;16.34;88.30;100308.16;5029670;28;20092;-75
2022/09/10 07:29:34;;;;;;;3.35;0.60;;;;;;;16.48;86.99;100313.16;5029428;28;20067;-77
2022/09/10 07:32:39;;;;;;;4.65;0.70;;;;;;;16.49;87.72;100304.25;5049190;28;20588;-74
2022/09/10 07:35:49;;;;;;;2.30;0.63;;;;;;;16.51;87.69;100312.91;5047671;28;20044;-73
2022/09/10 07:38:56;;;;;;;3.03;0.80;;;;;;;16.48;86.31;100317.59;5048239;28;20124;-74
2022/09/10 07:41:59;;;;;;;4.25;0.80;;;;;;;16.49;86.94;100314.81;5049149;28;20048;-74
2022/09/10 07:45:06;;;;;;;2.80;0.70;;;;;;;16.49;88.19;100319.25;5047335;28;20136;-74
2022/09/10 07:48:10;;;;;;;6.90;1.58;;;;;;;16.60;87.03;100315.78;5029651;28;20124;-72
2022/09/10 07:51:18;;;;;;;7.20;1.25;;;;;;;16.55;86.39;100312.66;5028276;28;20048;-73
2022/09/10 07:54:23;;;;;;;4.72;1.00;;;;;;;16.56;85.86;100319.59;5045443;28;20402;-73
2022/09/10 07:57:30;;;;;;;2.72;0.80;;;;;;;16.60;88.58;100318.41;5047784;28;20060;-74
2022/09/10 08:00:33;;;;;;;2.05;0.73;;;;;;;16.75;87.73;100314.53;5046583;28;20132;-74
2022/09/10 08:03:41;;;;;;;3.03;0.95;;;;;;;16.85;87.14;100315.50;5044874;28;20048;-74
2022/09/10 08:06:47;;;;;;;4.13;1.05;;;;;;;16.94;83.48;100316.50;5048140;28;20071;-73
2022/09/10 08:09:50;;;;;;;7.07;1.15;;;;;;;17.01;84.32;100316.88;5049049;28;20087;-71
2022/09/10 08:12:56;;;;;;;2.92;0.80;;;;;;;17.26;84.03;100323.56;5048456;28;20056;-72
2022/09/10 08:16:04;;;;;;;4.78;1.65;;;;;;;17.18;81.83;100322.41;5047233;28;20101;-71
2022/09/10 08:19:08;;;;;;;3.78;1.13;;;;;;;16.99;81.76;100318.78;5048567;28;20091;-72
2022/09/10 08:22:13;;;;;;;6.13;1.70;;;;;;;17.01;83.02;100325.63;5047591;28;20121;-72
2022/09/10 08:25:20;;;;;;;6.68;1.40;;;;;;;16.80;82.04;100330.03;5063263;28;20039;-72
2022/09/10 08:28:26;;;;;;;5.03;1.30;;;;;;;16.84;82.35;100329.63;5078145;28;20421;-72
2022/09/10 08:31:31;;;;;;;4.63;1.52;;;;;;;16.92;81.69;100331.66;5066966;28;20401;-71
2022/09/10 08:34:57;;;;;;;4.85;1.17;;;;;;;16.74;81.03;100345.34;5068608;28;20105;-86
2022/09/10 08:38:01;;;;;;;7.80;1.85;;;;;;;16.65;82.28;100339.97;5066864;28;20070;-74
2022/09/10 08:41:18;;;;;;;4.95;1.60;;;;;;;16.67;82.62;100338.06;5066685;28;20051;-71
2022/09/10 08:44:32;;;;;;;5.78;1.65;;;;;;;16.80;82.90;100346.69;5058203;28;20107;-74
2022/09/10 08:47:53;;;;;;;3.53;1.55;;;;;;;16.58;81.83;100344.09;5041951;28;20112;-72
2022/09/10 08:51:09;;;;;;;5.15;1.23;;;;;;;16.66;82.52;100350.44;5043769;28;20063;-70
2022/09/10 08:54:19;;;;;;;6.20;1.30;;;;;;;16.83;83.30;100349.09;5047422;28;20098;-72
2022/09/10 08:57:39;;;;;;;6.18;1.80;;;;;;;17.00;84.55;100346.88;5046881;28;20881;-73
2022/09/10 09:00:48;;;;;;;5.70;1.38;;;;;;;16.92;83.49;100352.78;5039437;28;20059;-86
2022/09/10 09:04:03;;;;;;;6.47;1.50;;;;;;;16.84;84.84;100358.69;5045436;28;20138;-76
2022/09/10 09:07:13;;;;;;;6.03;1.63;;;;;;;16.91;83.25;100359.88;5046776;28;20056;-83
2022/09/10 09:10:25;;;;;;;9.73;1.60;;;;;;;17.10;83.59;100361.88;5047549;28;20072;-84
2022/09/10 09:13:39;;;;;;;6.10;1.40;;;;;;;17.11;82.20;100368.81;5046471;28;20171;-86
2022/09/10 09:16:59;;;;;;;6.85;1.38;;;;;;;16.73;82.56;100375.38;5034569;28;20099;-86
2022/09/10 09:20:09;;;;;;;5.38;1.70;;;;;;;17.09;82.83;100364.63;5047781;28;20175;-86
2022/09/10 09:23:22;;;;;;;9.05;1.92;;;;;;;17.12;82.72;100365.19;5047396;28;20136;-85
2022/09/10 09:26:37;;;;;;;8.55;1.40;;;;;;;17.16;82.62;100368.41;5027919;28;20512;-83
2022/09/10 09:30:02;;;;;;;5.13;1.08;;;;;;;17.33;82.19;100369.69;5027278;28;20056;-85
2022/09/10 09:33:23;;;;;;;5.68;1.35;;;;;;;17.27;83.44;100371.03;5028985;28;20040;-84
2022/09/10 09:36:43;;;;;;;7.18;1.30;;;;;;;17.27;79.94;100365.75;5027194;28;20110;-85
2022/09/10 09:40:03;;;;;;;3.95;1.10;;;;;;;17.22;81.72;100375.84;5026042;28;20426;-85
2022/09/10 09:53:32;;;;;;;3.30;1.13;;;;;;;16.83;83.20;100374.66;5067167;28;20090;-89
2022/09/10 10:19:57;;;;;;;4.13;0.75;;;;;;;17.41;79.95;100362.78;5023877;28;20072;-89
2022/09/10 10:23:36;;;;;;;2.22;0.55;;;;;;;17.91;78.33;100351.56;5024456;28;20094;-90
2022/09/10 10:26:42;;;;;;;1.83;0.50;;;;;;;17.94;78.54;100346.03;4983161;28;20513;-88
2022/09/10 10:35:45;;;;;;;3.05;1.38;;;;;;;17.98;76.73;100344.78;5047747;28;20513;-88
2022/09/10 10:39:54;;;;;;;3.35;0.90;;;;;;;17.92;77.09;100347.13;5047470;28;20352;-87
2022/09/10 10:43:56;;;;;;;3.35;1.27;;;;;;;17.67;78.04;100341.25;5047242;28;20075;-90
2022/09/10 10:48:45;;;;;;;2.28;0.43;;;;;;;17.91;76.83;100343.66;5048997;28;20055;-86
2022/09/10 10:52:14;;;;;;;4.55;0.60;;;;;;;18.18;75.37;100342.22;5050802;28;20060;-87
2022/09/10 10:55:22;;;;;;;1.88;0.50;;;;;;;18.16;73.82;100326.50;5038162;28;20044;-88
2022/09/10 10:58:58;;;;;;;1.85;0.60;;;;;;;18.44;74.81;100329.34;5049877;28;20043;-88
2022/09/10 11:02:16;;;;;;;2.78;0.60;;;;;;;18.39;72.80;100321.81;5067880;28;20583;-86
2022/09/10 11:05:40;;;;;;;1.73;0.40;;;;;;;18.37;70.59;100321.09;5058303;28;20075;-86
2022/09/10 11:09:13;;;;;;;2.78;0.80;;;;;;;18.59;71.15;100320.88;5059436;28;20113;-89
2022/09/10 11:13:08;;;;;;;3.17;0.52;;;;;;;18.46;71.08;100325.59;5070815;28;20508;-88
2022/09/10 11:16:30;;;;;;;3.88;0.70;;;;;;;18.35;71.02;100318.59;5071100;28;20125;-86
2022/09/10 11:24:53;;;;;;;2.88;1.83;;;;;;;18.18;71.53;100326.34;5071394;28;20071;-82
2022/09/10 11:28:18;;;;;;;3.38;1.27;;;;;;;18.24;70.98;100316.06;5070434;28;20120;-87
2022/09/10 11:32:03;;;;;;;5.78;4.07;;;;;;;18.16;70.32;100305.31;5071401;28;20052;-87
2022/09/10 11:35:32;;;;;;;2.95;1.15;;;;;;;18.26;71.13;100313.28;5057112;28;20067;-87
2022/09/10 11:39:17;;;;;;;2.78;0.88;;;;;;;18.49;71.18;100314.72;5057945;28;20611;-86
2022/09/10 11:42:55;;;;;;;2.95;0.98;;;;;;;18.54;69.91;100303.75;5069894;28;20047;-84
2022/09/10 11:46:06;;;;;;;2.47;0.75;;;;;;;18.61;70.34;100310.16;5070331;28;20043;-87
2022/09/10 11:49:56;;;;;;;3.30;1.13;;;;;;;18.59;69.37;100302.34;5058235;28;20054;-85
2022/09/10 11:53:10;;;;;;;3.55;0.65;;;;;;;18.59;68.19;100306.81;5079907;28;20044;-88
2022/09/10 11:56:51;;;;;;;2.92;1.05;;;;;;;18.96;67.14;100300.88;5069366;28;20059;-86
2022/09/10 12:00:14;;;;;;;1.95;0.60;;;;;;;18.92;67.40;100305.63;5068844;28;20098;-85
2022/09/10 12:03:28;;;;;;;2.20;0.50;;;;;;;18.86;68.08;100310.63;5070367;28;20563;-85
2022/09/10 12:06:41;;;;;;;4.10;0.65;;;;;;;18.77;68.08;100312.31;5057463;28;20051;-85
2022/09/10 12:10:13;;;;;;;3.15;2.00;;;;;;;18.71;68.83;100303.06;5069589;28;20048;-85
2022/09/10 12:13:16;;;;;;;3.03;1.20;;;;;;;18.67;68.95;100301.66;5069584;28;20043;-87
2022/09/10 12:17:13;;;;;;;3.90;0.95;;;;;;;18.78;67.96;100298.91;5059363;28;20093;-88
2022/09/10 12:21:40;;;;;;;3.17;1.42;;;;;;;18.82;67.10;100299.47;5028804;28;20115;-88
2022/09/10 12:26:08;;;;;;;2.20;0.68;;;;;;;19.02;66.06;100302.97;5014091;28;20456;-82
2022/09/10 12:29:32;;;;;;;6.13;2.50;;;;;;;18.92;65.77;100305.63;5028317;28;20048;-86
2022/09/10 12:32:35;;;;;;;3.00;1.77;;;;;;;19.32;65.23;100295.81;5028408;28;20048;-86
2022/09/10 12:35:49;;;;;;;3.28;1.67;;;;;;;19.78;63.27;100291.53;5029257;28;20063;-84
2022/09/10 12:39:11;;;;;;;;;;;;;;;19.68;63.06;100296.88;5028775;28;20056;-86
2022/09/10 12:42:44;;;;;;;4.38;0.73;;;;;;;19.38;62.59;100296.09;5028075;28;19919;-87
2022/09/10 12:46:18;;;;;;;1.90;0.90;;;;;;;19.30;64.21;100293.28;5028584;28;20052;-83
2022/09/10 12:49:21;;;;;;;2.90;0.90;;;;;;;19.00;63.07;100291.66;5026629;28;20557;-83
2022/09/10 12:52:33;;;;;;;2.85;1.30;;;;;;;18.82;64.12;100283.56;5027746;28;20142;-83
2022/09/10 12:56:05;;;;;;;3.85;1.27;;;;;;;18.89;63.96;100286.50;5028229;28;20044;-85
2022/09/10 12:59:40;;;;;;;7.50;2.30;;;;;;;18.97;64.90;100299.91;5026345;28;20048;-83
2022/09/10 13:02:51;;;;;;;2.03;0.85;;;;;;;19.31;64.31;100294.16;5027902;28;20581;-84
2022/09/10 13:06:00;;;;;;;3.08;0.60;;;;;;;18.96;63.76;100304.34;5028088;28;20415;-86
2022/09/10 13:09:16;;;;;;;3.42;0.70;;;;;;;19.04;63.44;100293.03;5027628;28;20043;-81
2022/09/10 13:12:22;;;;;;;3.85;0.60;;;;;;;18.77;64.76;100294.59;5027744;28;20121;-84
2022/09/10 13:15:48;;;;;;;3.15;0.38;;;;;;;18.83;66.09;100295.84;5027740;28;20562;-86
2022/09/10 13:19:18;;;;;;;3.58;0.93;;;;;;;18.42;69.99;100304.84;5049426;28;20063;-86
2022/09/10 13:22:57;;;;;;;7.07;0.80;;;;;;;18.32;72.65;100303.00;5060902;28;20109;-85
2022/09/10 13:26:38;;;;;;;2.92;0.70;;;;;;;18.21;75.54;100305.72;5067394;28;20410;-84
2022/09/10 13:29:50;;;;;;;2.78;0.88;;;;;;;18.14;75.39;100317.84;5067088;28;20081;-83
2022/09/10 13:33:06;;;;;;;3.55;1.95;;;;;;;17.99;74.25;100332.38;5067555;28;20449;-82
2022/09/10 13:36:38;;;;;;;2.53;0.80;;;;;;;17.60;74.01;100326.88;5068133;28;20524;-85
2022/09/10 13:40:01;;;;;;;2.28;0.70;;;;;;;17.05;76.72;100331.50;5067752;28;20047;-86
2022/09/10 13:43:32;;;;;;;3.63;0.95;;;;;;;17.05;78.36;100331.50;5068206;28;20044;-77
2022/09/10 13:46:45;;;;;;;4.80;2.78;;;;;;;17.32;79.84;100338.91;5068164;28;20517;-78
2022/09/10 13:49:56;;;;;;;5.75;2.63;;;;;;;17.45;79.82;100350.13;5068313;28;20520;-77
2022/09/10 13:53:07;;;;;;;6.28;2.15;;;;;;;17.55;80.61;100344.91;5066789;28;20055;-76
2022/09/10 13:56:16;;;;;;;3.72;1.10;;;;;;;17.78;80.52;100341.22;5067767;28;20639;-77
2022/09/10 13:59:29;;;;;;;3.70;1.17;;;;;;;18.22;79.38;100344.47;5055319;28;20508;-77
2022/09/10 14:02:44;;;;;;;4.68;1.80;;;;;;;18.55;78.15;100335.38;5067632;28;20047;-77
2022/09/10 14:06:02;;;;;;;3.78;1.38;;;;;;;18.33;78.17;100336.41;5066902;28;20167;-77
2022/09/10 14:09:06;;;;;;;4.07;2.05;;;;;;;18.35;76.94;100345.06;5067744;28;20055;-77
2022/09/10 14:12:12;;;;;;;4.35;1.90;;;;;;;18.23;76.16;100345.31;5066805;28;20044;-76
2022/09/10 14:15:21;;;;;;;5.55;1.40;;;;;;;18.16;76.67;100331.78;5067021;28;20487;-77
2022/09/10 14:18:35;;;;;;;5.93;1.42;;;;;;;18.22;78.31;100333.03;5066522;28;20047;-80
2022/09/10 14:21:42;;;;;;;2.47;0.70;;;;;;;17.99;78.15;100338.50;5069815;28;20567;-89
2022/09/10 14:24:54;;;;;;;2.30;0.75;;;;;;;18.21;77.09;100334.84;5071548;28;20516;-87
2022/09/10 14:28:35;;;;;;;5.25;2.15;;;;;;;18.21;76.83;100336.66;5059174;28;20256;-91
2022/09/10 14:32:28;;;;;;;2.63;0.95;;;;;;;18.51;75.70;100338.44;5072049;28;20056;-87
2022/09/10 14:35:44;;;;;;;1.67;0.65;;;;;;;18.26;76.48;100334.47;5070098;28;20040;-79
2022/09/10 14:38:57;;;;;;;3.03;1.20;;;;;;;18.27;78.12;100331.66;5058113;28;20110;-87
2022/09/10 14:42:22;;;;;;;5.95;1.23;;;;;;;17.80;78.49;100328.69;5069301;28;20411;-86
2022/09/10 14:46:01;;;;;;;2.97;0.95;;;;;;;17.79;79.46;100327.00;5071530;28;20094;-89
2022/09/10 14:49:16;;;;;;;3.25;1.42;;;;;;;18.02;79.25;100321.53;5050866;28;20071;-84
2022/09/10 14:52:23;;;;;;;;;;;;;;;18.31;77.65;100313.69;5050523;28;20083;-87
2022/09/10 14:55:32;;;;;;;3.72;1.23;;;;;;;18.11;77.72;100315.47;5050322;28;19955;-88
2022/09/10 14:58:46;;;;;;;3.50;0.82;;;;;;;18.56;76.86;100304.44;5050843;28;20258;-87
2022/09/10 15:02:30;;;;;;;3.40;0.90;;;;;;;19.06;74.87;100307.00;5037740;28;20067;-89
2022/09/10 15:05:49;;;;;;;8.95;1.30;;;;;;;18.99;74.73;100305.91;5040353;28;21033;-92
2022/09/10 15:08:56;;;;;;;3.25;1.83;;;;;;;18.63;75.95;100305.53;5071986;28;20043;-87
2022/09/10 15:12:48;;;;;;;4.30;1.08;;;;;;;18.47;77.43;100305.25;5069542;28;20095;-87
2022/09/10 15:17:47;;;;;;;6.05;2.22;;;;;;;18.32;78.34;100316.22;5008706;28;20080;-92
2022/09/10 15:20:58;;;;;;;2.65;1.10;;;;;;;18.30;79.98;100328.75;4958210;28;20061;-89
2022/09/10 15:24:05;;;;;;;5.50;1.10;;;;;;;18.28;81.73;100328.06;4968910;28;20255;-86
2022/09/10 15:27:08;;;;;;;5.25;1.20;;;;;;;18.07;83.65;100320.19;4975546;28;20098;-87
2022/09/10 15:30:12;;;;;;;4.32;1.60;;;;;;;18.18;83.77;100327.16;4970819;28;20142;-86
2022/09/10 15:33:16;;;;;;;5.32;0.88;;;;;;;18.01;83.82;100319.88;4968297;28;20077;-81
2022/09/10 15:36:22;;;;;;;6.07;1.40;;;;;;;17.99;84.75;100321.81;4987096;28;20069;-81
2022/09/10 15:39:26;;;;;;;4.97;0.73;;;;;;;17.90;85.39;100328.75;4987749;28;20573;-85
2022/09/10 15:42:35;;;;;;;6.95;1.00;;;;;;;17.81;86.74;100311.03;4970685;28;20121;-81
2022/09/10 15:45:41;;;;;;;4.20;1.00;;;;;;;17.71;87.75;100313.59;4971572;28;20106;-83
2022/09/10 15:48:46;;;;;;;4.90;0.90;;;;;;;17.69;87.91;100307.59;5009840;28;20135;-82
2022/09/10 15:51:52;;;;;;;5.95;1.33;;;;;;;17.97;87.19;100310.53;5029285;28;20056;-85
2022/09/10 15:54:56;;;;;;;5.38;1.63;;;;;;;18.88;83.37;100303.38;5009483;28;20512;-85